Time;durP1;ratioP1;P1;durP2;ratioP2;P2;SDS_P1;SDS_P2;PMS_P1;PMS_P2;Temp;Humidity;BMP_temperature;BMP_pressure;BME280_temperature;BME280_humidity;BME280_pressure;Samples;Min_cycle;Max_cycle;Signal;HPM_P1;HPM_P2
2023/01/03 00:01:06;;;;;;;;;;;4.60;99.90;;;;;;5025280;28;20025;-73
2023/01/03 00:03:33;;;;;;;;;;;4.60;99.90;;;;;;5017345;28;19944;-72
2023/01/03 00:06:00;;;;;;;;;;;4.50;99.90;;;;;;5019376;28;20008;-73
2023/01/03 00:08:28;;;;;;;;;;;4.50;99.90;;;;;;5016279;28;20012;-72
2023/01/03 00:10:55;;;;;;;;;;;4.50;99.90;;;;;;5019263;28;19930;-72
2023/01/03 00:13:20;;;;;;;;;;;4.50;99.90;;;;;;5015260;28;19932;-73
2023/01/03 00:15:47;;;;;;;;;;;4.50;99.90;;;;;;5021622;28;20007;-72
2023/01/03 00:18:14;;;;;;;;;;;4.40;99.90;;;;;;5016772;28;19929;-73
2023/01/03 00:20:41;;;;;;;;;;;4.40;99.90;;;;;;5023800;28;20464;-73
2023/01/03 00:23:09;;;;;;;;;;;4.40;99.90;;;;;;5020730;28;20016;-73
2023/01/03 00:25:36;;;;;;;;;;;4.30;99.90;;;;;;5022842;28;19931;-72
2023/01/03 00:28:03;;;;;;;;;;;4.20;99.90;;;;;;5020360;28;19971;-72
2023/01/03 00:30:29;;;;;;;;;;;4.20;99.90;;;;;;5022808;28;20012;-72
2023/01/03 00:32:56;;;;;;;;;;;4.10;99.90;;;;;;5015252;28;19925;-72
2023/01/03 00:35:23;;;;;;;;;;;4.20;99.90;;;;;;5021587;28;19930;-72
2023/01/03 00:37:49;;;;;;;;;;;4.20;99.90;;;;;;5019165;28;20399;-73
2023/01/03 00:40:17;;;;;;;;;;;4.30;99.90;;;;;;5022133;28;19926;-72
2023/01/03 00:45:28;;;;;;;;;;;4.30;99.90;;;;;;5026485;28;19940;-73
2023/01/03 00:47:55;;;;;;;;;;;4.40;99.90;;;;;;5023056;28;20032;-73
2023/01/03 00:50:21;;;;;;;;;;;4.40;99.90;;;;;;5020343;28;20024;-73
2023/01/03 00:52:48;;;;;;;;;;;4.40;99.90;;;;;;5019215;28;20024;-74
2023/01/03 00:55:15;;;;;;;;;;;4.40;99.90;;;;;;5021772;28;19935;-73
2023/01/03 00:57:43;;;;;;;;;;;4.40;99.90;;;;;;5026795;28;20016;-73
2023/01/03 01:00:10;;;;;;;;;;;4.50;99.90;;;;;;5021870;28;19971;-74
2023/01/03 01:02:37;;;;;;;;;;;4.50;99.90;;;;;;5018190;28;19929;-72
2023/01/03 01:05:03;;;;;;;;;;;4.50;99.90;;;;;;5020477;28;19932;-73
2023/01/03 01:07:30;;;;;;;;;;;4.50;99.90;;;;;;5018418;28;20320;-72
2023/01/03 01:09:57;;;;;;;;;;;4.50;99.90;;;;;;5022053;28;19925;-73
2023/01/03 01:12:23;;;;;;;;;;;4.50;99.90;;;;;;5015468;28;19952;-73
2023/01/03 01:14:51;;;;;;;;;;;4.40;99.90;;;;;;5021798;28;19925;-74
2023/01/03 01:17:18;;;;;;;;;;;4.40;99.90;;;;;;5020894;28;20460;-73
2023/01/03 01:19:45;;;;;;;;;;;4.40;99.90;;;;;;5024684;28;19959;-74
2023/01/03 01:22:11;;;;;;;;;;;4.40;99.90;;;;;;5017463;28;19951;-73
2023/01/03 01:24:38;;;;;;;;;;;4.30;99.90;;;;;;5019004;28;20404;-74
2023/01/03 01:27:05;;;;;;;;;;;4.30;99.90;;;;;;5011198;28;19941;-73
2023/01/03 01:29:32;;;;;;;;;;;4.20;99.90;;;;;;5019917;28;19929;-73
2023/01/03 01:32:00;;;;;;;;;;;4.30;99.90;;;;;;5013933;28;19925;-72
2023/01/03 01:34:27;;;;;;;;;;;4.30;99.90;;;;;;5014493;28;19925;-73
2023/01/03 01:36:53;;;;;;;;;;;4.30;99.90;;;;;;5016152;28;20012;-73
2023/01/03 01:39:21;;;;;;;;;;;4.30;99.90;;;;;;5020568;28;20027;-72
2023/01/03 01:44:40;;;;;;;;;;;4.40;99.90;;;;;;5018895;28;19944;-71
2023/01/03 01:47:09;;;;;;;;;;;4.50;99.90;;;;;;5015078;28;19929;-72
2023/01/03 01:49:37;;;;;;;;;;;4.50;99.90;;;;;;5016720;28;19957;-72
2023/01/03 01:52:03;;;;;;;;;;;4.50;99.90;;;;;;5012957;28;19925;-71
2023/01/03 01:54:30;;;;;;;;;;;4.50;99.90;;;;;;5017138;28;20700;-71
2023/01/03 01:56:57;;;;;;;;;;;4.50;99.90;;;;;;5021217;28;20368;-73
2023/01/03 01:59:24;;;;;;;;;;;4.60;99.90;;;;;;5025727;28;20001;-72
2023/01/03 02:01:51;;;;;;;;;;;4.60;99.90;;;;;;5016396;28;19932;-71
2023/01/03 02:04:20;;;;;;;;;;;4.60;99.90;;;;;;5024797;28;19929;-72
2023/01/03 02:06:49;;;;;;;;;;;4.60;99.90;;;;;;5033890;28;19933;-72
2023/01/03 02:09:15;;;;;;;;;;;4.60;99.90;;;;;;5020846;28;19929;-72
2023/01/03 02:11:49;;;;;;;;;;;4.60;99.90;;;;;;5012466;28;19925;-72
2023/01/03 02:14:26;;;;;;;;;;;4.60;99.90;;;;;;5016126;28;20305;-73
2023/01/03 02:16:58;;;;;;;;;;;4.70;99.90;;;;;;5014566;28;19943;-73
2023/01/03 02:19:37;;;;;;;;;;;4.60;99.90;;;;;;5017895;28;19933;-72
2023/01/03 02:22:14;;;;;;;;;;;4.60;99.90;;;;;;5012931;28;20406;-72
2023/01/03 02:25:03;;;;;;;;;;;4.60;99.90;;;;;;5020882;28;20040;-73
2023/01/03 02:27:43;;;;;;;;;;;4.50;99.90;;;;;;5023606;28;19932;-73
2023/01/03 02:30:25;;;;;;;;;;;4.50;99.90;;;;;;5016499;28;20291;-73
2023/01/03 02:32:57;;;;;;;;;;;4.50;99.90;;;;;;5013814;28;20016;-73
2023/01/03 02:35:26;;;;;;;;;;;4.50;99.90;;;;;;5013006;28;20012;-72
2023/01/03 02:37:56;;;;;;;;;;;4.50;99.90;;;;;;5020139;28;20012;-73
2023/01/03 02:40:25;;;;;;;;;;;4.50;99.90;;;;;;5021965;28;20287;-74
2023/01/03 02:43:01;;;;;;;;;;;4.40;99.90;;;;;;5026464;28;20317;-74
2023/01/03 02:45:33;;;;;;;;;;;4.40;99.90;;;;;;5023516;28;20019;-74
2023/01/03 02:48:03;;;;;;;;;;;4.30;99.90;;;;;;5020872;28;19960;-74
2023/01/03 02:50:34;;;;;;;;;;;4.20;99.90;;;;;;5022064;28;19925;-74
2023/01/03 02:53:03;;;;;;;;;;;4.10;99.90;;;;;;5025503;28;20029;-74
2023/01/03 02:55:31;;;;;;;;;;;4.00;99.90;;;;;;5025549;28;20025;-74
2023/01/03 02:58:01;;;;;;;;;;;3.80;99.90;;;;;;5015842;28;19937;-74
2023/01/03 03:00:30;;;;;;;;;;;3.80;99.90;;;;;;5021787;28;19936;-74
2023/01/03 03:02:59;;;;;;;;;;;3.80;99.90;;;;;;5023481;28;19932;-74
2023/01/03 03:05:28;;;;;;;;;;;3.70;99.90;;;;;;5020393;28;20039;-74
2023/01/03 03:07:57;;;;;;;;;;;3.60;99.90;;;;;;5028491;28;19925;-74
2023/01/03 03:13:14;;;;;;;;;;;3.70;99.90;;;;;;5023672;28;20064;-73
2023/01/03 03:15:44;;;;;;;;;;;3.90;99.90;;;;;;5029901;28;19925;-74
2023/01/03 03:18:12;;;;;;;;;;;4.00;99.90;;;;;;5023575;28;19925;-73
2023/01/03 03:26:14;;;;;;;;;;;4.10;99.90;;;;;;5017634;28;19948;-73
2023/01/03 03:28:43;;;;;;;;;;;4.10;99.90;;;;;;5024187;28;19930;-73
2023/01/03 03:31:12;;;;;;;;;;;4.10;99.90;;;;;;5021068;28;19988;-73
2023/01/03 03:33:41;;;;;;;;;;;4.30;99.90;;;;;;5024513;28;19932;-73
2023/01/03 03:36:12;;;;;;;;;;;4.30;99.90;;;;;;5025891;28;19925;-73
2023/01/03 03:38:40;;;;;;;;;;;4.40;99.90;;;;;;5024089;28;20012;-74
2023/01/03 03:46:44;;;;;;;;;;;4.80;99.90;;;;;;5025192;28;19932;-73
2023/01/03 03:52:00;;;;;;;;;;;5.00;99.90;;;;;;5012706;28;19943;-73
2023/01/03 03:54:27;;;;;;;;;;;5.00;99.90;;;;;;5019741;28;19935;-74
2023/01/03 03:56:55;;;;;;;;;;;4.90;99.90;;;;;;5021333;28;19926;-74
2023/01/03 03:59:23;;;;;;;;;;;4.90;99.90;;;;;;5012815;28;20020;-74
2023/01/03 04:01:50;;;;;;;;;;;4.80;99.90;;;;;;5025608;28;19925;-73
2023/01/03 04:04:19;;;;;;;;;;;4.90;99.90;;;;;;5022659;28;19932;-73
2023/01/03 04:06:48;;;;;;;;;;;4.90;99.90;;;;;;5020930;28;20418;-73
2023/01/03 04:09:16;;;;;;;;;;;4.90;99.90;;;;;;5024644;28;19925;-72
2023/01/03 04:11:43;;;;;;;;;;;5.00;99.90;;;;;;5021948;28;19925;-72
2023/01/03 04:14:10;;;;;;;;;;;4.90;99.90;;;;;;5023855;28;20411;-72
2023/01/03 04:16:37;;;;;;;;;;;4.90;99.90;;;;;;5019389;28;19932;-73
2023/01/03 04:19:04;;;;;;;;;;;5.00;99.90;;;;;;5015696;28;19926;-73
2023/01/03 04:21:30;;;;;;;;;;;5.00;99.90;;;;;;5018128;28;19925;-72
2023/01/03 04:23:57;;;;;;;;;;;5.10;99.90;;;;;;5021672;28;20376;-71
2023/01/03 04:26:25;;;;;;;;;;;5.20;99.90;;;;;;5018445;28;20361;-72
2023/01/03 04:28:52;;;;;;;;;;;5.20;99.90;;;;;;5021264;28;19925;-71
2023/01/03 04:31:18;;;;;;;;;;;5.20;99.90;;;;;;5024611;28;20015;-71
2023/01/03 04:33:45;;;;;;;;;;;5.20;99.90;;;;;;5020471;28;19971;-71
2023/01/03 04:36:12;;;;;;;;;;;5.20;99.90;;;;;;5021765;28;20020;-73
2023/01/03 04:38:38;;;;;;;;;;;5.20;99.90;;;;;;5022622;28;20059;-72
2023/01/03 04:41:05;;;;;;;;;;;5.10;99.90;;;;;;5020939;28;20016;-72
2023/01/03 04:46:18;;;;;;;;;;;5.20;99.90;;;;;;5035889;28;19933;-73
2023/01/03 04:48:44;;;;;;;;;;;5.30;99.90;;;;;;5019329;28;20396;-72
2023/01/03 04:51:11;;;;;;;;;;;5.50;99.90;;;;;;5017875;28;19932;-73
2023/01/03 04:53:38;;;;;;;;;;;5.50;99.90;;;;;;5021986;28;20411;-73
2023/01/03 04:56:05;;;;;;;;;;;5.60;99.90;;;;;;5022689;28;19925;-72
2023/01/03 04:58:31;;;;;;;;;;;5.70;99.90;;;;;;5023006;28;19933;-72
2023/01/03 05:01:03;;;;;;;;;;;5.70;99.90;;;;;;5024199;28;20281;-73
2023/01/03 05:03:30;;;;;;;;;;;5.70;99.90;;;;;;5023695;28;19936;-73
2023/01/03 05:05:59;;;;;;;;;;;5.80;99.90;;;;;;5035440;28;19935;-73
2023/01/03 05:08:26;;;;;;;;;;;5.80;99.90;;;;;;5019069;28;19933;-73
2023/01/03 05:10:53;;;;;;;;;;;5.80;99.90;;;;;;5029823;28;20012;-72
2023/01/03 05:13:20;;;;;;;;;;;5.80;99.90;;;;;;5033813;28;19931;-73
2023/01/03 05:15:47;;;;;;;;;;;5.90;99.90;;;;;;5020013;28;19929;-72
2023/01/03 05:18:15;;;;;;;;;;;5.90;99.90;;;;;;5021286;28;20407;-73
2023/01/03 05:26:10;;;;;;;;;;;5.90;99.90;;;;;;5026377;28;20014;-73
2023/01/03 05:28:37;;;;;;;;;;;5.90;99.90;;;;;;5024857;28;19952;-73
2023/01/03 05:31:04;;;;;;;;;;;6.00;99.90;;;;;;5022842;28;19943;-74
2023/01/03 05:33:32;;;;;;;;;;;5.90;99.90;;;;;;5019782;28;19926;-73
2023/01/03 05:35:59;;;;;;;;;;;5.90;99.90;;;;;;5016955;28;19931;-73
2023/01/03 05:38:25;;;;;;;;;;;5.90;99.90;;;;;;5013210;28;19944;-73
2023/01/03 05:40:52;;;;;;;;;;;5.90;99.90;;;;;;5015125;28;20025;-73
2023/01/03 05:43:19;;;;;;;;;;;6.00;99.90;;;;;;5019449;28;19926;-72
2023/01/03 05:45:48;;;;;;;;;;;5.90;99.90;;;;;;5014935;28;19932;-72
2023/01/03 05:48:15;;;;;;;;;;;6.00;99.90;;;;;;5025273;28;20031;-74
2023/01/03 05:50:43;;;;;;;;;;;5.90;99.90;;;;;;5020986;28;19926;-72
2023/01/03 05:53:10;;;;;;;;;;;5.90;99.90;;;;;;5018231;28;20323;-72
2023/01/03 05:55:37;;;;;;;;;;;5.90;99.90;;;;;;5010704;28;20312;-73
2023/01/03 05:58:03;;;;;;;;;;;5.90;99.90;;;;;;5016506;28;20372;-72
2023/01/03 06:00:30;;;;;;;;;;;5.90;99.90;;;;;;5020788;28;20456;-71
2023/01/03 06:02:57;;;;;;;;;;;5.80;99.90;;;;;;5019803;28;20020;-71
2023/01/03 06:05:23;;;;;;;;;;;5.80;99.90;;;;;;5028036;28;19964;-72
2023/01/03 06:07:51;;;;;;;;;;;5.90;99.90;;;;;;5022461;28;19932;-72
2023/01/03 06:10:18;;;;;;;;;;;5.80;99.90;;;;;;5022034;28;20336;-72
2023/01/03 06:12:45;;;;;;;;;;;5.80;99.90;;;;;;5010783;28;20281;-72
2023/01/03 06:15:11;;;;;;;;;;;5.80;99.90;;;;;;5013989;28;20474;-72
2023/01/03 06:17:57;;;;;;;;;;;5.80;99.90;;;;;;5016468;28;20360;-72
2023/01/03 06:20:27;;;;;;;;;;;5.90;99.90;;;;;;5013282;28;19925;-71
2023/01/03 06:22:56;;;;;;;;;;;5.90;99.90;;;;;;5017342;28;20297;-72
2023/01/03 06:25:22;;;;;;;;;;;5.90;99.90;;;;;;5021690;28;20385;-74
2023/01/03 06:27:49;;;;;;;;;;;6.00;99.90;;;;;;5013690;28;20007;-71
2023/01/03 06:30:16;;;;;;;;;;;6.00;99.90;;;;;;5022406;28;19931;-70
2023/01/03 06:32:43;;;;;;;;;;;6.00;99.90;;;;;;5023801;28;20032;-71
2023/01/03 06:35:10;;;;;;;;;;;6.10;99.90;;;;;;5024750;28;19925;-71
2023/01/03 06:37:36;;;;;;;;;;;6.00;99.90;;;;;;5020267;28;19930;-71
2023/01/03 06:40:05;;;;;;;;;;;6.00;99.90;;;;;;5030774;28;19925;-71
2023/01/03 06:42:44;;;;;;;;;;;6.00;99.90;;;;;;5033294;28;19943;-71
2023/01/03 06:53:28;;;;;;;;;;;6.20;99.90;;;;;;5019885;28;20009;-71
2023/01/03 06:55:56;;;;;;;;;;;6.30;99.90;;;;;;5028989;28;20031;-72
2023/01/03 06:58:22;;;;;;;;;;;6.40;99.90;;;;;;5027105;28;20404;-71
2023/01/03 07:00:49;;;;;;;;;;;6.50;99.90;;;;;;5024333;28;20265;-71
2023/01/03 07:03:16;;;;;;;;;;;6.60;99.90;;;;;;5027126;28;20371;-73
2023/01/03 07:05:42;;;;;;;;;;;6.60;99.90;;;;;;5019398;28;19931;-71
2023/01/03 07:08:09;;;;;;;;;;;6.70;99.90;;;;;;5023313;28;20375;-73
2023/01/03 07:10:36;;;;;;;;;;;6.70;99.90;;;;;;5025036;28;19939;-73
2023/01/03 07:15:48;;;;;;;;;;;6.80;99.90;;;;;;5025192;28;19940;-72
2023/01/03 07:18:14;;;;;;;;;;;6.80;99.90;;;;;;5018949;28;20071;-74
2023/01/03 07:20:42;;;;;;;;;;;6.80;99.90;;;;;;5018905;28;19933;-73
2023/01/03 07:23:08;;;;;;;;;;;6.80;99.90;;;;;;5020049;28;19926;-73
2023/01/03 07:25:39;;;;;;;;;;;6.80;99.90;;;;;;5019836;28;20400;-73
2023/01/03 07:28:08;;;;;;;;;;;6.80;99.90;;;;;;5015581;28;19935;-73
2023/01/03 07:30:38;;;;;;;;;;;6.90;99.90;;;;;;5017430;28;19930;-74
2023/01/03 07:33:05;;;;;;;;;;;6.90;99.90;;;;;;5021181;28;20305;-74
2023/01/03 07:35:32;;;;;;;;;;;6.90;99.90;;;;;;5028612;28;19925;-73
2023/01/03 07:37:59;;;;;;;;;;;6.90;99.90;;;;;;5020906;28;19933;-74
2023/01/03 07:40:25;;;;;;;;;;;7.00;99.90;;;;;;5017168;28;19932;-73
2023/01/03 07:45:38;;;;;;;;;;;7.00;99.90;;;;;;4984733;28;20034;-73
2023/01/03 07:48:05;;;;;;;;;;;7.10;99.90;;;;;;5023569;28;19925;-74
2023/01/03 07:50:32;;;;;;;;;;;7.10;99.90;;;;;;5022775;28;19925;-74
2023/01/03 07:52:59;;;;;;;;;;;7.00;99.90;;;;;;5016740;28;19988;-74
2023/01/03 07:55:27;;;;;;;;;;;7.10;99.90;;;;;;5018486;28;19925;-74
2023/01/03 07:57:53;;;;;;;;;;;7.10;99.90;;;;;;5016703;28;19943;-74
2023/01/03 08:00:20;;;;;;;;;;;7.10;99.90;;;;;;5021154;28;19931;-73
2023/01/03 08:02:48;;;;;;;;;;;7.10;99.90;;;;;;5020865;28;20024;-74
2023/01/03 08:05:15;;;;;;;;;;;7.20;99.90;;;;;;5023795;28;19932;-74
2023/01/03 08:07:42;;;;;;;;;;;7.20;99.90;;;;;;5014192;28;19925;-74
2023/01/03 08:15:38;;;;;;;;;;;7.20;99.90;;;;;;5017357;28;19979;-74
2023/01/03 08:18:06;;;;;;;;;;;7.30;99.90;;;;;;5020258;28;20005;-74
2023/01/03 08:20:32;;;;;;;;;;;7.30;99.90;;;;;;5024423;28;19948;-74
2023/01/03 08:22:59;;;;;;;;;;;7.30;99.90;;;;;;5024794;28;20587;-74
2023/01/03 08:25:26;;;;;;;;;;;7.30;99.90;;;;;;5017698;28;20389;-75
2023/01/03 08:27:53;;;;;;;;;;;7.40;99.90;;;;;;5022692;28;20304;-74
2023/01/03 08:30:19;;;;;;;;;;;7.40;99.90;;;;;;5017580;28;19931;-74
2023/01/03 08:32:46;;;;;;;;;;;7.40;99.90;;;;;;5018064;28;19925;-74
2023/01/03 08:35:14;;;;;;;;;;;7.40;99.90;;;;;;5025723;28;19925;-74
2023/01/03 08:37:42;;;;;;;;;;;7.40;99.90;;;;;;5015921;28;20344;-73
2023/01/03 08:40:09;;;;;;;;;;;7.50;99.90;;;;;;5026822;28;19941;-74
2023/01/03 08:42:37;;;;;;;;;;;7.50;99.90;;;;;;5022902;28;20391;-74
2023/01/03 08:45:06;;;;;;;;;;;7.50;99.90;;;;;;5016738;28;19931;-73
2023/01/03 08:47:33;;;;;;;;;;;7.50;99.90;;;;;;5009033;28;19937;-73
2023/01/03 08:50:00;;;;;;;;;;;7.50;99.90;;;;;;5018546;28;19983;-73
2023/01/03 08:52:32;;;;;;;;;;;7.50;99.90;;;;;;5014680;28;19930;-76
2023/01/03 08:55:15;;;;;;;;;;;7.50;99.90;;;;;;5015946;28;19936;-75
2023/01/03 08:57:41;;;;;;;;;;;7.50;99.90;;;;;;5015534;28;20011;-74
2023/01/03 09:00:09;;;;;;;;;;;7.40;99.90;;;;;;5014384;28;20023;-74
2023/01/03 09:02:35;;;;;;;;;;;7.50;99.90;;;;;;5021121;28;20356;-73
2023/01/03 09:05:02;;;;;;;;;;;7.50;99.90;;;;;;5018677;28;20400;-73
2023/01/03 09:07:32;;;;;;;;;;;7.60;99.90;;;;;;5022350;28;20023;-72
2023/01/03 09:09:59;;;;;;;;;;;7.50;99.90;;;;;;5022296;28;19925;-73
2023/01/03 09:12:27;;;;;;;;;;;7.50;99.90;;;;;;5021961;28;20351;-76
2023/01/03 09:14:53;;;;;;;;;;;7.50;99.90;;;;;;5007255;28;20304;-75
2023/01/03 09:17:20;;;;;;;;;;;7.50;99.90;;;;;;5010823;28;19939;-74
2023/01/03 09:19:47;;;;;;;;;;;7.40;99.90;;;;;;5009044;28;19947;-74
2023/01/03 09:22:13;;;;;;;;;;;7.40;99.90;;;;;;5010586;28;19955;-74
2023/01/03 09:24:41;;;;;;;;;;;7.40;99.90;;;;;;5015140;28;19971;-75
2023/01/03 09:27:08;;;;;;;;;;;7.40;99.90;;;;;;5019813;28;19931;-77
2023/01/03 09:29:34;;;;;;;;;;;7.40;99.90;;;;;;5024667;28;20012;-73
2023/01/03 09:32:02;;;;;;;;;;;7.40;99.90;;;;;;5022626;28;19925;-73
2023/01/03 09:34:29;;;;;;;;;;;7.40;99.90;;;;;;5015926;28;21031;-74
2023/01/03 09:36:55;;;;;;;;;;;7.40;99.90;;;;;;5018057;28;19948;-75
2023/01/03 09:39:22;;;;;;;;;;;7.40;99.90;;;;;;5012732;28;19933;-74
2023/01/03 09:43:11;;;;;;;;;;;7.40;99.90;;;;;;5022286;28;20008;-72
2023/01/03 09:44:38;;;;;;;;;;;7.40;99.90;;;;;;5011251;28;19930;-76
2023/01/03 09:47:04;;;;;;;;;;;7.50;99.90;;;;;;5012358;28;20295;-75
2023/01/03 09:49:31;;;;;;;;;;;7.50;99.90;;;;;;5008277;28;20511;-75
2023/01/03 10:06:01;;;;;;;;;;;7.70;99.90;;;;;;5009929;28;19926;-72
2023/01/03 10:08:33;;;;;;;;;;;7.70;99.90;;;;;;5007568;28;20012;-75
2023/01/03 10:11:02;;;;;;;;;;;7.80;99.90;;;;;;5014710;28;19925;-69
2023/01/03 10:13:36;;;;;;;;;;;7.80;99.90;;;;;;5018177;28;19926;-76
2023/01/03 10:16:07;;;;;;;;;;;7.80;99.90;;;;;;5011694;28;19936;-77
2023/01/03 10:18:49;;;;;;;;;;;7.90;99.90;;;;;;4993823;28;20320;-75
2023/01/03 10:21:21;;;;;;;;;;;7.90;99.90;;;;;;5012419;28;20642;-75
2023/01/03 10:23:48;;;;;;;;;;;8.00;99.90;;;;;;5016933;28;19936;-75
2023/01/03 10:26:15;;;;;;;;;;;8.10;99.90;;;;;;5013873;28;19933;-74
2023/01/03 10:28:47;;;;;;;;;;;8.10;99.90;;;;;;5007378;28;20011;-74
2023/01/03 10:31:19;;;;;;;;;;;8.10;99.90;;;;;;5010628;28;20198;-76
2023/01/03 10:33:47;;;;;;;;;;;8.10;99.90;;;;;;5007004;28;19937;-74
2023/01/03 10:36:17;;;;;;;;;;;8.10;99.90;;;;;;5011056;28;20466;-76
2023/01/03 10:38:44;;;;;;;;;;;8.10;99.90;;;;;;5011764;28;19925;-76
2023/01/03 10:41:15;;;;;;;;;;;8.10;99.90;;;;;;5016631;28;19926;-79
2023/01/03 10:43:44;;;;;;;;;;;8.20;99.90;;;;;;5021910;28;20425;-76
2023/01/03 10:46:14;;;;;;;;;;;8.20;99.90;;;;;;5017033;28;19929;-77
2023/01/03 10:48:42;;;;;;;;;;;8.20;99.90;;;;;;5007209;28;20405;-78
2023/01/03 10:51:22;;;;;;;;;;;8.20;99.90;;;;;;5017741;28;19925;-77
2023/01/03 10:53:51;;;;;;;;;;;8.30;99.90;;;;;;5007766;28;21937;-76
2023/01/03 10:56:18;;;;;;;;;;;8.30;99.90;;;;;;5013209;28;20422;-77
2023/01/03 10:58:46;;;;;;;;;;;8.30;99.90;;;;;;5013525;28;19938;-77
2023/01/03 11:01:20;;;;;;;;;;;8.40;99.90;;;;;;5020233;28;19925;-77
2023/01/03 11:04:02;;;;;;;;;;;8.40;99.90;;;;;;5016525;28;19933;-76
2023/01/03 11:06:30;;;;;;;;;;;8.50;99.90;;;;;;5016772;28;19931;-76
2023/01/03 11:09:00;;;;;;;;;;;8.50;99.90;;;;;;5016527;28;19944;-76
2023/01/03 11:11:28;;;;;;;;;;;8.60;99.90;;;;;;5028754;28;20327;-76
2023/01/03 11:14:10;;;;;;;;;;;8.50;99.90;;;;;;5020481;28;19925;-78
2023/01/03 11:16:36;;;;;;;;;;;8.50;99.90;;;;;;5024003;28;19939;-75
2023/01/03 11:19:37;;;;;;;;;;;8.40;99.90;;;;;;5119562;27;19922;-75
2023/01/03 11:22:05;;;;;;;;;;;8.40;99.90;;;;;;5112940;27;20024;-76
2023/01/03 11:24:41;;;;;;;;;;;8.40;99.90;;;;;;5113657;27;19969;-78
2023/01/03 11:27:12;;;;;;;;;;;8.40;99.90;;;;;;5109367;27;19928;-78
2023/01/03 11:29:54;;;;;;;;;;;8.50;99.90;;;;;;5103479;27;19930;-78
2023/01/03 11:32:24;;;;;;;;;;;8.60;99.90;;;;;;5098523;28;19986;-75
2023/01/03 11:35:03;;;;;;;;;;;8.60;99.90;;;;;;5105219;28;20018;-76
2023/01/03 11:37:37;;;;;;;;;;;8.70;99.90;;;;;;5104631;28;19930;-78
2023/01/03 11:40:08;;;;;;;;;;;8.70;99.90;;;;;;5094085;28;19924;-76
2023/01/03 11:42:39;;;;;;;;;;;8.80;99.90;;;;;;5105193;28;19924;-76
2023/01/03 11:45:24;;;;;;;;;;;9.00;99.90;;;;;;5101710;28;20410;-76
2023/01/03 11:47:54;;;;;;;;;;;9.00;99.90;;;;;;5097400;28;20023;-75
2023/01/03 11:50:28;;;;;;;;;;;9.00;99.90;;;;;;5104961;28;20011;-74
2023/01/03 11:52:56;;;;;;;;;;;8.80;99.90;;;;;;5097989;28;19970;-75
2023/01/03 11:55:49;;;;;;;;;;;8.90;99.90;;;;;;5105267;28;19939;-74
2023/01/03 11:58:24;;;;;;;;;;;8.80;99.90;;;;;;5107214;28;20027;-74
2023/01/03 12:00:57;;;;;;;;;;;8.90;99.90;;;;;;5102150;28;20409;-73
2023/01/03 12:03:29;;;;;;;;;;;8.80;99.90;;;;;;5099359;28;20014;-74
2023/01/03 12:06:00;;;;;;;;;;;8.80;99.90;;;;;;5098861;27;20378;-74
2023/01/03 12:08:41;;;;;;;;;;;8.70;99.90;;;;;;5093052;28;20019;-74
2023/01/03 12:11:13;;;;;;;;;;;8.80;99.90;;;;;;5100304;28;19924;-74
2023/01/03 12:13:42;;;;;;;;;;;9.00;99.90;;;;;;5104316;27;20444;-75
2023/01/03 12:16:12;;;;;;;;;;;9.00;99.90;;;;;;5107873;28;20027;-74
2023/01/03 12:18:42;;;;;;;;;;;9.10;99.90;;;;;;5106718;27;19931;-73
2023/01/03 12:21:13;;;;;;;;;;;9.10;99.90;;;;;;5126331;27;19930;-74
2023/01/03 12:23:41;;;;;;;;;;;9.20;99.90;;;;;;5137044;27;19924;-74
2023/01/03 12:26:09;;;;;;;;;;;9.20;99.90;;;;;;5133459;27;19939;-75
2023/01/03 12:28:38;;;;;;;;;;;9.30;99.90;;;;;;5118049;27;20030;-75
2023/01/03 12:31:07;;;;;;;;;;;9.20;99.90;;;;;;5115613;27;20058;-74
2023/01/03 12:33:37;;;;;;;;;;;9.20;99.90;;;;;;5115087;27;20032;-75
2023/01/03 12:36:10;;;;;;;;;;;9.20;99.90;;;;;;5113261;27;19928;-73
2023/01/03 12:38:40;;;;;;;;;;;9.10;99.90;;;;;;5102955;27;19923;-75
2023/01/03 12:41:14;;;;;;;;;;;9.00;99.90;;;;;;5110384;27;20074;-75
2023/01/03 12:43:45;;;;;;;;;;;9.00;99.90;;;;;;5107752;27;20440;-76
2023/01/03 12:46:15;;;;;;;;;;;8.90;99.90;;;;;;5107999;27;19923;-75
2023/01/03 12:48:57;;;;;;;;;;;8.90;99.90;;;;;;5113846;27;19924;-74
2023/01/03 12:51:24;;;;;;;;;;;9.00;99.90;;;;;;5106852;27;20019;-73
2023/01/03 12:53:55;;;;;;;;;;;9.00;99.90;;;;;;5110548;27;19947;-74
2023/01/03 12:56:33;;;;;;;;;;;9.00;99.90;;;;;;5113761;27;20011;-75
2023/01/03 12:59:05;;;;;;;;;;;8.90;99.90;;;;;;5105038;27;19928;-76
2023/01/03 13:01:35;;;;;;;;;;;8.80;99.90;;;;;;5103077;27;19924;-75
2023/01/03 13:04:06;;;;;;;;;;;8.90;99.90;;;;;;5099463;27;19930;-76
2023/01/03 13:06:35;;;;;;;;;;;8.90;99.90;;;;;;5107909;27;19923;-75
2023/01/03 13:09:04;;;;;;;;;;;8.90;99.90;;;;;;5109646;27;20484;-74
2023/01/03 13:11:34;;;;;;;;;;;8.90;99.90;;;;;;5111486;27;20378;-75
2023/01/03 13:14:03;;;;;;;;;;;9.00;99.90;;;;;;5102333;27;19930;-74
2023/01/03 13:16:42;;;;;;;;;;;9.00;99.90;;;;;;5106243;27;20374;-75
2023/01/03 13:19:26;;;;;;;;;;;9.10;99.90;;;;;;5117222;27;20007;-74
2023/01/03 13:22:04;;;;;;;;;;;9.00;99.90;;;;;;5066005;27;19994;-74
2023/01/03 13:24:42;;;;;;;;;;;9.10;99.90;;;;;;5099997;27;19924;-76
2023/01/03 13:27:29;;;;;;;;;;;9.10;99.90;;;;;;5104901;27;19976;-74
2023/01/03 13:29:57;;;;;;;;;;;9.20;99.90;;;;;;5094802;27;20018;-75
2023/01/03 13:32:28;;;;;;;;;;;9.20;99.90;;;;;;5111726;27;19931;-75
2023/01/03 13:35:28;;;;;;;;;;;9.20;99.90;;;;;;5111411;27;20117;-74
2023/01/03 13:37:56;;;;;;;;;;;9.10;99.90;;;;;;5042348;28;20019;-74
2023/01/03 13:40:27;;;;;;;;;;;9.10;99.90;;;;;;5038312;28;19932;-73
2023/01/03 13:43:04;;;;;;;;;;;9.20;99.90;;;;;;5073296;27;19969;-74
2023/01/03 13:45:52;;;;;;;;;;;9.20;99.90;;;;;;5103353;27;19932;-75
2023/01/03 13:48:23;;;;;;;;;;;9.10;99.90;;;;;;5092981;27;19960;-74
2023/01/03 13:51:03;;;;;;;;;;;9.20;99.90;;;;;;5093347;27;19928;-75
2023/01/03 13:53:39;;;;;;;;;;;9.10;99.90;;;;;;5099916;27;19942;-74
2023/01/03 13:56:22;;;;;;;;;;;9.10;99.90;;;;;;5102104;27;19924;-74
2023/01/03 13:59:10;;;;;;;;;;;9.10;99.90;;;;;;5099770;27;19963;-76
2023/01/03 14:02:01;;;;;;;;;;;9.20;99.90;;;;;;5098225;27;19923;-74
2023/01/03 14:04:47;;;;;;;;;;;9.20;99.90;;;;;;5075500;27;20313;-76
2023/01/03 14:07:29;;;;;;;;;;;9.10;99.90;;;;;;5095090;27;19923;-75
2023/01/03 14:10:06;;;;;;;;;;;9.10;99.90;;;;;;5099783;27;19930;-74
2023/01/03 14:12:48;;;;;;;;;;;9.00;99.90;;;;;;5110823;27;19923;-74
2023/01/03 14:15:18;;;;;;;;;;;9.00;99.90;;;;;;5083894;27;20391;-74
2023/01/03 14:17:47;;;;;;;;;;;9.00;99.90;;;;;;5103430;27;20659;-75
2023/01/03 14:20:19;;;;;;;;;;;8.90;99.90;;;;;;5098878;27;20524;-76
2023/01/03 14:22:56;;;;;;;;;;;8.80;99.90;;;;;;5105917;27;19927;-76
2023/01/03 14:25:35;;;;;;;;;;;8.90;99.90;;;;;;5103269;27;20379;-74
2023/01/03 14:28:02;;;;;;;;;;;8.80;99.90;;;;;;5099892;27;19932;-75
2023/01/03 14:30:33;;;;;;;;;;;8.90;99.90;;;;;;5104863;27;19924;-75
2023/01/03 14:33:01;;;;;;;;;;;8.80;99.90;;;;;;5098637;27;19924;-75
2023/01/03 14:35:34;;;;;;;;;;;8.80;99.90;;;;;;5104424;27;20445;-76
2023/01/03 14:38:01;;;;;;;;;;;8.80;99.90;;;;;;5102398;27;20262;-76
2023/01/03 14:40:28;;;;;;;;;;;8.90;99.90;;;;;;5110347;27;19924;-75
2023/01/03 14:42:55;;;;;;;;;;;8.80;99.90;;;;;;5107104;27;20378;-74
2023/01/03 14:45:22;;;;;;;;;;;8.80;99.90;;;;;;5104809;27;20279;-74
2023/01/03 14:47:54;;;;;;;;;;;8.90;99.90;;;;;;5102132;28;19984;-76
2023/01/03 14:50:25;;;;;;;;;;;8.80;99.90;;;;;;5109062;27;19980;-75
2023/01/03 14:52:54;;;;;;;;;;;8.80;99.90;;;;;;5102395;27;19991;-75
2023/01/03 14:55:21;;;;;;;;;;;8.70;99.90;;;;;;5111532;27;20022;-76
2023/01/03 14:57:49;;;;;;;;;;;8.80;99.90;;;;;;5109026;27;19942;-75
2023/01/03 15:00:17;;;;;;;;;;;8.70;99.90;;;;;;5105886;27;20346;-75
2023/01/03 15:02:44;;;;;;;;;;;8.80;99.90;;;;;;5104370;27;19931;-74
2023/01/03 15:05:23;;;;;;;;;;;8.70;99.90;;;;;;5114867;27;20293;-75
2023/01/03 15:07:49;;;;;;;;;;;8.70;99.90;;;;;;5100161;27;20466;-75
2023/01/03 15:10:17;;;;;;;;;;;8.60;99.90;;;;;;5106568;27;20034;-75
2023/01/03 15:12:45;;;;;;;;;;;8.60;99.90;;;;;;5107009;27;19924;-73
2023/01/03 15:15:20;;;;;;;;;;;8.50;99.90;;;;;;5108379;28;19929;-74
2023/01/03 15:17:47;;;;;;;;;;;8.50;99.90;;;;;;5109180;28;20337;-76
2023/01/03 15:20:17;;;;;;;;;;;8.50;99.90;;;;;;5098074;28;20403;-75
2023/01/03 15:22:45;;;;;;;;;;;8.50;99.90;;;;;;5100151;28;19924;-73
2023/01/03 15:25:17;;;;;;;;;;;8.40;99.90;;;;;;5106556;28;20018;-73
2023/01/03 15:27:44;;;;;;;;;;;8.40;99.90;;;;;;5095029;28;19951;-74
2023/01/03 15:30:22;;;;;;;;;;;8.40;99.90;;;;;;5107412;28;20008;-75
2023/01/03 15:32:49;;;;;;;;;;;8.40;99.90;;;;;;5100651;28;19974;-75
2023/01/03 15:35:23;;;;;;;;;;;8.30;99.90;;;;;;5104083;28;19928;-76
2023/01/03 15:37:53;;;;;;;;;;;8.30;99.90;;;;;;5092961;28;19931;-74
2023/01/03 15:40:20;;;;;;;;;;;8.30;99.90;;;;;;5112086;28;19938;-74
2023/01/03 15:45:36;;;;;;;;;;;8.20;99.90;;;;;;5096078;28;20019;-72
2023/01/03 15:48:04;;;;;;;;;;;8.10;99.90;;;;;;5105316;28;19930;-72
2023/01/03 15:50:40;;;;;;;;;;;8.20;99.90;;;;;;5102029;28;20210;-73
2023/01/03 15:53:13;;;;;;;;;;;8.10;99.90;;;;;;5103806;28;19931;-72